Bandirma, Band?rma Airport (LTBG)

NameBand?rma Airport
CityBandirma
CountryTurkey
ICAOLTBG
IATABDM
Altitude52 m
CoordinatesGoogle Map
Live Air TrafficLiveATC.net
METARLTBG 150050Z 17005KT 9999 SCT035 BKN100 06/06 Q1020 NOSIG RMK RWY18 21004KT
2018-12-15 00:50:00 Wind: South-Southeast (170°) 2.57 m/s - Visibility: > 10000 m - Temperature: 6 °C - Dew point: 6 °C - Humidity: 100% - Pressure: 1020 hPa

Sorry, no flights used the airport in this database.